createdAt,value
2023-04-09T00:01:04.569Z,14.40
2023-04-09T00:03:18.859Z,14.40
2023-04-09T00:05:31.801Z,14.38
2023-04-09T00:07:44.802Z,14.30
2023-04-09T00:09:58.968Z,14.23
2023-04-09T00:12:11.810Z,14.18
2023-04-09T00:14:25.303Z,14.14
2023-04-09T00:16:38.369Z,14.12
2023-04-09T00:18:51.242Z,14.09
2023-04-09T00:21:03.957Z,14.05
2023-04-09T00:23:16.601Z,14.03
2023-04-09T00:25:29.810Z,14.01
2023-04-09T00:27:42.804Z,13.96
2023-04-09T00:29:56.745Z,13.92
2023-04-09T00:32:09.618Z,13.89
2023-04-09T00:34:22.376Z,13.87
2023-04-09T00:36:34.636Z,13.83
2023-04-09T00:38:47.606Z,13.79
2023-04-09T00:41:00.890Z,13.73
2023-04-09T00:43:13.573Z,13.69
2023-04-09T00:45:26.288Z,13.65
2023-04-09T00:47:40.506Z,13.62
2023-04-09T00:49:53.756Z,13.58
2023-04-09T00:52:07.291Z,13.56
2023-04-09T00:54:20.204Z,13.54
2023-04-09T00:56:33.287Z,13.50
2023-04-09T00:58:46.251Z,13.48
2023-04-09T01:00:58.990Z,13.46
2023-04-09T01:03:12.217Z,13.44
2023-04-09T01:05:25.834Z,13.41
2023-04-09T01:07:56.140Z,13.39
2023-04-09T01:10:20.836Z,13.35
2023-04-09T01:12:42.150Z,13.33
2023-04-09T01:15:02.922Z,13.32
2023-04-09T01:17:20.315Z,13.31
2023-04-09T01:19:46.410Z,13.32
2023-04-09T01:22:02.667Z,13.34
2023-04-09T01:24:39.614Z,13.33
2023-04-09T01:27:02.734Z,13.36
2023-04-09T01:29:26.669Z,13.38
2023-04-09T01:31:44.326Z,13.39
2023-04-09T01:33:58.516Z,13.41
2023-04-09T01:36:13.824Z,13.42
2023-04-09T01:38:27.233Z,13.44
2023-04-09T01:40:40.212Z,13.44
2023-04-09T01:42:54.891Z,13.44
2023-04-09T01:45:09.187Z,13.44
2023-04-09T01:47:22.648Z,13.44
2023-04-09T01:49:36.283Z,13.44
2023-04-09T01:51:50.829Z,13.44
2023-04-09T01:54:03.784Z,13.43
2023-04-09T01:56:16.632Z,13.43
2023-04-09T01:58:29.568Z,13.41
2023-04-09T02:00:48.830Z,13.40
2023-04-09T02:03:10.169Z,13.39
2023-04-09T02:05:28.260Z,13.38
2023-04-09T02:07:47.293Z,13.36
2023-04-09T02:10:02.226Z,13.34
2023-04-09T02:12:17.931Z,13.32
2023-04-09T02:14:31.736Z,13.29
2023-04-09T02:16:44.646Z,13.26
2023-04-09T02:19:02.282Z,13.21
2023-04-09T02:21:15.690Z,13.17
2023-04-09T02:23:30.029Z,13.12
2023-04-09T02:25:42.698Z,13.07
2023-04-09T02:27:55.620Z,13.03
2023-04-09T02:30:08.921Z,13.00
2023-04-09T02:32:21.821Z,12.97
2023-04-09T02:34:34.825Z,12.96
2023-04-09T02:36:48.562Z,12.92
2023-04-09T02:39:01.584Z,12.88
2023-04-09T02:41:14.975Z,12.85
2023-04-09T02:43:27.806Z,12.81
2023-04-09T02:45:41.197Z,12.80
2023-04-09T02:47:54.430Z,12.78
2023-04-09T02:50:07.783Z,12.77
2023-04-09T02:52:21.299Z,12.76
2023-04-09T02:54:35.130Z,12.74
2023-04-09T02:56:47.779Z,12.71
2023-04-09T02:59:00.427Z,12.69
2023-04-09T03:01:13.178Z,12.69
2023-04-09T03:03:26.619Z,12.69
2023-04-09T03:05:40.020Z,12.68
2023-04-09T03:07:53.291Z,12.67
2023-04-09T03:10:05.864Z,12.67
2023-04-09T03:12:18.872Z,12.66
2023-04-09T03:14:32.877Z,12.66
2023-04-09T03:16:47.831Z,12.64
2023-04-09T03:19:01.150Z,12.64
2023-04-09T03:21:16.685Z,12.61
2023-04-09T03:23:36.062Z,12.57
2023-04-09T03:25:49.906Z,12.53
2023-04-09T03:28:04.265Z,12.51
2023-04-09T03:30:23.394Z,12.47
2023-04-09T03:32:36.030Z,12.43
2023-04-09T03:34:49.761Z,12.39
2023-04-09T03:37:04.781Z,12.33
2023-04-09T03:39:17.725Z,12.32
2023-04-09T03:41:31.770Z,12.30
2023-04-09T03:43:47.334Z,12.30
2023-04-09T03:46:00.672Z,12.30
2023-04-09T03:48:14.733Z,12.30
2023-04-09T03:50:27.677Z,12.31
2023-04-09T03:52:41.299Z,12.32
2023-04-09T03:54:54.200Z,12.32
2023-04-09T03:57:08.550Z,12.32
2023-04-09T03:59:24.269Z,12.32
2023-04-09T04:01:37.914Z,12.33
2023-04-09T04:03:50.986Z,12.32
2023-04-09T04:06:23.598Z,12.31
2023-04-09T04:08:58.923Z,12.29
2023-04-09T04:11:18.983Z,12.28
2023-04-09T04:13:32.440Z,12.28
2023-04-09T04:15:47.883Z,12.27
2023-04-09T04:18:01.635Z,12.27
2023-04-09T04:20:23.225Z,12.25
2023-04-09T04:22:42.544Z,12.22
2023-04-09T04:24:55.122Z,12.20
2023-04-09T04:27:09.868Z,12.18
2023-04-09T04:29:22.597Z,12.15
2023-04-09T04:31:46.630Z,12.09
2023-04-09T04:34:00.332Z,12.04
2023-04-09T04:36:16.648Z,11.97
2023-04-09T04:38:37.387Z,11.90
2023-04-09T04:40:53.531Z,11.86
2023-04-09T04:43:06.939Z,11.81
2023-04-09T04:45:21.354Z,11.76
2023-04-09T04:47:38.530Z,11.70
2023-04-09T04:49:51.889Z,11.66
2023-04-09T04:52:06.389Z,11.65
2023-04-09T04:54:19.235Z,11.62
2023-04-09T04:56:35.740Z,11.61
2023-04-09T04:58:54.666Z,11.58
2023-04-09T05:01:07.742Z,11.55
2023-04-09T05:03:20.979Z,11.51
2023-04-09T05:05:48.534Z,11.50
2023-04-09T05:08:02.438Z,11.48
2023-04-09T05:10:16.204Z,11.47
2023-04-09T05:12:34.348Z,11.45
2023-04-09T05:14:47.870Z,11.44
2023-04-09T05:17:00.769Z,11.43
2023-04-09T05:19:18.811Z,11.43
2023-04-09T05:21:32.773Z,11.42
2023-04-09T05:23:46.028Z,11.40
2023-04-09T05:25:58.678Z,11.38
2023-04-09T05:28:22.361Z,11.38
2023-04-09T05:30:39.375Z,11.38
2023-04-09T05:32:52.362Z,11.36
2023-04-09T05:35:06.983Z,11.35
2023-04-09T05:37:24.617Z,11.32
2023-04-09T05:39:38.183Z,11.29
2023-04-09T05:41:51.492Z,11.26
2023-04-09T05:44:15.083Z,11.22
2023-04-09T05:46:30.249Z,11.18
2023-04-09T05:48:43.270Z,11.16
2023-04-09T05:51:01.026Z,11.14
2023-04-09T05:53:14.264Z,11.12
2023-04-09T05:55:28.332Z,11.10
2023-04-09T05:57:46.477Z,11.08
2023-04-09T05:59:59.827Z,11.06
2023-04-09T06:02:13.536Z,11.04
2023-04-09T06:04:27.222Z,11.02
2023-04-09T06:06:40.497Z,11.01
2023-04-09T06:08:53.361Z,10.97
2023-04-09T06:11:09.005Z,10.95
2023-04-09T06:13:22.331Z,10.94
2023-04-09T06:15:36.486Z,10.93
2023-04-09T06:17:49.667Z,10.92
2023-04-09T06:20:02.390Z,10.90
2023-04-09T06:22:15.471Z,10.89
2023-04-09T06:24:28.655Z,10.89
2023-04-09T06:26:41.745Z,10.89
2023-04-09T06:28:54.873Z,10.88
2023-04-09T06:31:07.656Z,10.87
2023-04-09T06:33:20.801Z,10.87
2023-04-09T06:35:33.583Z,10.86
2023-04-09T06:37:46.228Z,10.85
2023-04-09T06:40:01.419Z,10.83
2023-04-09T06:42:14.386Z,10.82
2023-04-09T06:44:36.485Z,10.81
2023-04-09T06:46:49.542Z,10.79
2023-04-09T06:49:02.213Z,10.79
2023-04-09T06:51:15.999Z,10.77
2023-04-09T06:53:28.691Z,10.76
2023-04-09T06:55:41.265Z,10.75
2023-04-09T06:57:54.872Z,10.73
2023-04-09T07:00:08.018Z,10.70
2023-04-09T07:02:21.756Z,10.69
2023-04-09T07:04:34.493Z,10.69
2023-04-09T07:06:47.410Z,10.69
2023-04-09T07:09:00.223Z,10.68
2023-04-09T07:11:13.291Z,10.67
2023-04-09T07:13:26.017Z,10.66
2023-04-09T07:15:40.577Z,10.65
2023-04-09T07:17:54.510Z,10.64
2023-04-09T07:20:07.997Z,10.62
2023-04-09T07:22:20.730Z,10.62
2023-04-09T07:24:33.824Z,10.61
2023-04-09T07:26:46.480Z,10.62
2023-04-09T07:29:00.007Z,10.62
2023-04-09T07:31:12.639Z,10.62
2023-04-09T07:33:25.390Z,10.62
2023-04-09T07:35:38.079Z,10.63
2023-04-09T07:37:50.773Z,10.64
2023-04-09T07:40:05.036Z,10.63
2023-04-09T07:42:18.448Z,10.63
2023-04-09T07:44:30.969Z,10.61
2023-04-09T07:46:43.709Z,10.58
2023-04-09T07:48:56.251Z,10.53
2023-04-09T07:51:08.875Z,10.51
2023-04-09T07:53:21.444Z,10.47
2023-04-09T07:55:34.295Z,10.45
2023-04-09T07:57:47.011Z,10.43
2023-04-09T08:00:01.043Z,10.41
2023-04-09T08:02:15.439Z,10.40
2023-04-09T08:04:29.309Z,10.38
2023-04-09T08:06:42.179Z,10.39
2023-04-09T08:08:54.993Z,10.38
2023-04-09T08:11:08.276Z,10.38
2023-04-09T08:13:21.304Z,10.36
2023-04-09T08:15:33.817Z,10.36
2023-04-09T08:17:46.780Z,10.36
2023-04-09T08:19:59.540Z,10.34
2023-04-09T08:22:12.740Z,10.34
2023-04-09T08:24:25.371Z,10.34
2023-04-09T08:26:38.567Z,10.35
2023-04-09T08:28:53.360Z,10.34
2023-04-09T08:31:06.725Z,10.32
2023-04-09T08:33:20.071Z,10.30
2023-04-09T08:35:33.695Z,10.31
2023-04-09T08:37:47.105Z,10.30
2023-04-09T08:39:59.875Z,10.28
2023-04-09T08:42:13.683Z,10.27
2023-04-09T08:44:29.188Z,10.26
2023-04-09T08:46:41.894Z,10.27
2023-04-09T08:48:56.443Z,10.26
2023-04-09T08:51:09.269Z,10.26
2023-04-09T08:53:25.151Z,10.25
2023-04-09T08:55:38.572Z,10.25
2023-04-09T08:57:51.293Z,10.24
2023-04-09T09:00:04.595Z,10.23
2023-04-09T09:02:17.879Z,10.22
2023-04-09T09:04:46.762Z,10.22
2023-04-09T09:07:09.726Z,10.21
2023-04-09T09:09:22.848Z,10.20
2023-04-09T09:11:35.911Z,10.20
2023-04-09T09:13:49.248Z,10.21
2023-04-09T09:16:17.862Z,10.19
2023-04-09T09:18:44.918Z,10.18
2023-04-09T09:21:12.895Z,10.18
2023-04-09T09:23:40.733Z,10.17
2023-04-09T09:25:53.639Z,10.17
2023-04-09T09:28:13.812Z,10.16
2023-04-09T09:30:33.587Z,10.14
2023-04-09T09:32:46.751Z,10.13
2023-04-09T09:35:08.111Z,10.11
2023-04-09T09:37:34.159Z,10.09
2023-04-09T09:39:50.993Z,10.07
2023-04-09T09:42:14.747Z,10.08
2023-04-09T09:44:39.060Z,10.07
2023-04-09T09:46:51.757Z,10.07
2023-04-09T09:49:04.663Z,10.08
2023-04-09T09:51:18.623Z,10.09
2023-04-09T09:53:33.074Z,10.09
2023-04-09T09:55:51.328Z,10.11
2023-04-09T09:58:06.658Z,10.11
2023-04-09T10:00:23.931Z,10.11
2023-04-09T10:02:43.961Z,10.09
2023-04-09T10:04:57.407Z,10.07
2023-04-09T10:07:11.099Z,10.06
2023-04-09T10:09:24.601Z,10.04
2023-04-09T10:11:39.656Z,10.02
2023-04-09T10:13:57.136Z,9.98
2023-04-09T10:16:12.356Z,9.97
2023-04-09T10:18:24.888Z,9.95
2023-04-09T10:20:44.915Z,9.94
2023-04-09T10:22:59.791Z,9.92
2023-04-09T10:25:14.271Z,9.91
2023-04-09T10:27:27.253Z,9.89
2023-04-09T10:29:46.219Z,9.87
2023-04-09T10:32:10.654Z,9.85
2023-04-09T10:34:24.582Z,9.83
2023-04-09T10:36:37.947Z,9.80
2023-04-09T10:38:52.210Z,9.78
2023-04-09T10:41:09.713Z,9.78
2023-04-09T10:43:25.352Z,9.78
2023-04-09T10:45:49.447Z,9.77
2023-04-09T10:48:06.445Z,9.74
2023-04-09T10:50:29.041Z,9.68
2023-04-09T10:52:43.395Z,9.63
2023-04-09T10:54:57.019Z,9.60
2023-04-09T10:57:20.887Z,9.59
2023-04-09T10:59:33.807Z,9.57
2023-04-09T11:01:55.309Z,9.56
2023-04-09T11:04:20.629Z,9.54
2023-04-09T11:06:34.711Z,9.53
2023-04-09T11:08:50.555Z,9.52
2023-04-09T11:11:04.056Z,9.52
2023-04-09T11:13:21.073Z,9.50
2023-04-09T11:15:34.719Z,9.50
2023-04-09T11:17:47.746Z,9.48
2023-04-09T11:20:01.032Z,9.47
2023-04-09T11:22:13.774Z,9.44
2023-04-09T11:24:26.883Z,9.42
2023-04-09T11:26:42.986Z,9.38
2023-04-09T11:28:58.964Z,9.36
2023-04-09T11:31:13.218Z,9.34
2023-04-09T11:33:25.721Z,9.30
2023-04-09T11:35:40.226Z,9.28
2023-04-09T11:37:55.685Z,9.26
2023-04-09T11:40:09.160Z,9.24
2023-04-09T11:42:23.045Z,9.22
2023-04-09T11:44:35.456Z,9.20
2023-04-09T11:46:48.870Z,9.18
2023-04-09T11:49:02.390Z,9.16
2023-04-09T11:51:15.588Z,9.15
2023-04-09T11:53:33.342Z,9.15
2023-04-09T11:55:46.209Z,9.14
2023-04-09T11:58:01.879Z,9.14
2023-04-09T12:00:17.860Z,9.14
2023-04-09T12:02:33.217Z,9.12
2023-04-09T12:04:55.507Z,9.11
2023-04-09T12:07:12.141Z,9.10
2023-04-09T12:09:24.887Z,9.09
2023-04-09T12:11:40.184Z,9.08
2023-04-09T12:14:02.361Z,9.07
2023-04-09T12:16:15.257Z,9.05
2023-04-09T12:18:28.004Z,9.04
2023-04-09T12:20:42.393Z,9.05
2023-04-09T12:22:55.040Z,9.07
2023-04-09T12:25:08.295Z,9.09
2023-04-09T12:27:20.887Z,9.10
2023-04-09T12:29:34.644Z,9.13
2023-04-09T12:31:47.697Z,9.14
2023-04-09T12:34:00.361Z,9.12
2023-04-09T12:36:14.027Z,9.11
2023-04-09T12:38:27.804Z,9.11
2023-04-09T12:40:41.290Z,9.09
2023-04-09T12:42:54.967Z,9.09
2023-04-09T12:45:07.901Z,9.09
2023-04-09T12:47:21.032Z,9.09
2023-04-09T12:49:34.138Z,9.09
2023-04-09T12:51:48.763Z,9.06
2023-04-09T12:54:01.972Z,9.01
2023-04-09T12:56:15.169Z,8.97
2023-04-09T12:58:27.925Z,8.91
2023-04-09T13:00:40.928Z,8.85
2023-04-09T13:02:54.015Z,8.80
2023-04-09T13:05:07.533Z,8.76
2023-04-09T13:07:20.497Z,8.75
2023-04-09T13:09:33.043Z,8.73
2023-04-09T13:11:45.686Z,8.73
2023-04-09T13:13:58.858Z,8.74
2023-04-09T13:16:12.280Z,8.75
2023-04-09T13:18:25.002Z,8.75
2023-04-09T13:20:37.715Z,8.75
2023-04-09T13:22:50.400Z,8.77
2023-04-09T13:25:03.050Z,8.78
2023-04-09T13:27:15.694Z,8.80
2023-04-09T13:29:30.382Z,8.79
2023-04-09T13:31:43.483Z,8.78
2023-04-09T13:33:56.372Z,8.77
2023-04-09T13:36:09.411Z,8.77
2023-04-09T13:38:22.180Z,8.75
2023-04-09T13:40:34.860Z,8.73
2023-04-09T13:42:47.717Z,8.72
2023-04-09T13:45:00.874Z,8.70
2023-04-09T13:47:14.702Z,8.67
2023-04-09T13:49:28.436Z,8.66
2023-04-09T13:51:40.918Z,8.64
2023-04-09T13:53:53.638Z,8.62
2023-04-09T13:56:06.552Z,8.62
2023-04-09T13:58:19.211Z,8.58
2023-04-09T14:00:32.092Z,8.56
2023-04-09T14:02:45.022Z,8.56
2023-04-09T14:04:58.061Z,8.55
2023-04-09T14:07:11.463Z,8.55
2023-04-09T14:09:24.514Z,8.56
2023-04-09T14:11:37.213Z,8.57
2023-04-09T14:13:49.791Z,8.57
2023-04-09T14:16:02.894Z,8.59
2023-04-09T14:18:15.446Z,8.61
2023-04-09T14:20:28.352Z,8.63
2023-04-09T14:22:42.598Z,8.65
2023-04-09T14:24:55.389Z,8.68
2023-04-09T14:27:07.913Z,8.71
2023-04-09T14:29:20.529Z,8.73
2023-04-09T14:31:34.697Z,8.75
2023-04-09T14:33:47.416Z,8.76
2023-04-09T14:36:00.429Z,8.79
2023-04-09T14:38:13.154Z,8.81
2023-04-09T14:40:26.348Z,8.85
2023-04-09T14:42:39.797Z,8.89
2023-04-09T14:44:52.660Z,8.92
2023-04-09T14:47:05.812Z,8.95
2023-04-09T14:49:18.569Z,8.98
2023-04-09T14:51:31.543Z,9.00
2023-04-09T14:53:44.293Z,9.01
2023-04-09T14:55:57.377Z,9.01
2023-04-09T14:58:10.008Z,8.98
2023-04-09T15:00:22.985Z,8.96
2023-04-09T15:02:36.405Z,8.94
2023-04-09T15:04:50.114Z,8.93
2023-04-09T15:07:02.991Z,8.91
2023-04-09T15:09:15.825Z,8.88
2023-04-09T15:11:29.030Z,8.87
2023-04-09T15:13:41.769Z,8.84
2023-04-09T15:15:54.880Z,8.82
2023-04-09T15:18:08.281Z,8.80
2023-04-09T15:20:21.005Z,8.77
2023-04-09T15:22:33.743Z,8.75
2023-04-09T15:24:46.438Z,8.75
2023-04-09T15:26:59.805Z,8.74
2023-04-09T15:29:13.990Z,8.75
2023-04-09T15:31:27.109Z,8.75
2023-04-09T15:33:40.115Z,8.74
2023-04-09T15:35:52.823Z,8.74
2023-04-09T15:38:05.750Z,8.73
2023-04-09T15:40:19.672Z,8.75
2023-04-09T15:42:32.504Z,8.76
2023-04-09T15:44:45.239Z,8.77
2023-04-09T15:46:58.864Z,8.79
2023-04-09T15:49:13.123Z,8.82
2023-04-09T15:51:26.336Z,8.84
2023-04-09T15:53:38.961Z,8.85
2023-04-09T15:55:51.759Z,8.84
2023-04-09T15:58:04.689Z,8.87
2023-04-09T16:00:18.309Z,8.90
2023-04-09T16:02:30.912Z,8.93
2023-04-09T16:04:43.960Z,8.94
2023-04-09T16:06:57.542Z,8.96
2023-04-09T16:09:10.512Z,8.97
2023-04-09T16:11:23.492Z,8.99
2023-04-09T16:13:36.610Z,9.01
2023-04-09T16:15:50.580Z,9.05
2023-04-09T16:18:03.409Z,9.08
2023-04-09T16:20:17.439Z,9.11
2023-04-09T16:22:30.043Z,9.13
2023-04-09T16:24:43.051Z,9.16
2023-04-09T16:26:55.560Z,9.17
2023-04-09T16:29:08.223Z,9.20
2023-04-09T16:31:21.686Z,9.21
2023-04-09T16:33:35.177Z,9.23
2023-04-09T16:35:48.289Z,9.25
2023-04-09T16:38:01.162Z,9.27
2023-04-09T16:40:15.765Z,9.30
2023-04-09T16:42:31.381Z,9.34
2023-04-09T16:44:44.531Z,9.39
2023-04-09T16:46:57.548Z,9.43
2023-04-09T16:49:10.653Z,9.48
2023-04-09T16:51:25.177Z,9.52
2023-04-09T16:53:39.024Z,9.52
2023-04-09T16:55:51.965Z,9.53
2023-04-09T16:58:06.074Z,9.53
2023-04-09T17:00:21.913Z,9.52
2023-04-09T17:02:35.196Z,9.52
2023-04-09T17:04:48.472Z,9.54
2023-04-09T17:07:01.586Z,9.56
2023-04-09T17:09:14.177Z,9.60
2023-04-09T17:11:26.903Z,9.62
2023-04-09T17:13:40.078Z,9.66
2023-04-09T17:15:52.523Z,9.71
2023-04-09T17:18:05.315Z,9.73
2023-04-09T17:20:19.644Z,9.76
2023-04-09T17:22:33.143Z,9.79
2023-04-09T17:24:46.016Z,9.81
2023-04-09T17:26:59.706Z,9.81
2023-04-09T17:29:12.778Z,9.78
2023-04-09T17:31:26.086Z,9.75
2023-04-09T17:33:40.233Z,9.72
2023-04-09T17:35:53.953Z,9.72
2023-04-09T17:38:06.625Z,9.73
2023-04-09T17:40:21.656Z,9.73
2023-04-09T17:42:34.811Z,9.75
2023-04-09T17:44:48.753Z,9.77
2023-04-09T17:47:01.882Z,9.79
2023-04-09T17:49:14.405Z,9.83
2023-04-09T17:51:28.209Z,9.87
2023-04-09T17:53:41.532Z,9.91
2023-04-09T17:55:54.825Z,9.96
2023-04-09T17:58:07.931Z,10.01
2023-04-09T18:00:21.352Z,10.06
2023-04-09T18:02:35.933Z,10.11
2023-04-09T18:04:49.556Z,10.16
2023-04-09T18:07:02.486Z,10.20
2023-04-09T18:09:17.063Z,10.23
2023-04-09T18:11:30.684Z,10.25
2023-04-09T18:13:43.288Z,10.28
2023-04-09T18:15:56.265Z,10.31
2023-04-09T18:18:09.167Z,10.32
2023-04-09T18:20:21.813Z,10.33
2023-04-09T18:22:36.286Z,10.33
2023-04-09T18:24:49.759Z,10.35
2023-04-09T18:27:03.349Z,10.38
2023-04-09T18:29:15.852Z,10.43
2023-04-09T18:31:28.797Z,10.49
2023-04-09T18:33:41.676Z,10.55
2023-04-09T18:35:54.383Z,10.61
2023-04-09T18:38:07.266Z,10.66
2023-04-09T18:40:21.338Z,10.68
2023-04-09T18:42:33.978Z,10.73
2023-04-09T18:44:46.949Z,10.76
2023-04-09T18:47:00.785Z,10.77
2023-04-09T18:49:13.438Z,10.77
2023-04-09T18:51:26.378Z,10.77
2023-04-09T18:53:39.124Z,10.77
2023-04-09T18:55:52.009Z,10.77
2023-04-09T18:58:06.382Z,10.76
2023-04-09T19:00:20.002Z,10.76
2023-04-09T19:02:33.012Z,10.75
2023-04-09T19:04:46.269Z,10.71
2023-04-09T19:06:59.228Z,10.70
2023-04-09T19:09:11.884Z,10.67
2023-04-09T19:11:24.942Z,10.65
2023-04-09T19:13:37.673Z,10.65
2023-04-09T19:15:50.664Z,10.66
2023-04-09T19:18:03.574Z,10.66
2023-04-09T19:20:17.360Z,10.67
2023-04-09T19:22:30.076Z,10.70
2023-04-09T19:24:42.676Z,10.74
2023-04-09T19:26:55.766Z,10.79
2023-04-09T19:29:08.792Z,10.83
2023-04-09T19:31:21.449Z,10.89
2023-04-09T19:33:35.385Z,10.93
2023-04-09T19:35:48.401Z,10.98
2023-04-09T19:38:04.166Z,11.03
2023-04-09T19:40:19.332Z,11.08
2023-04-09T19:42:32.896Z,11.13
2023-04-09T19:44:45.874Z,11.17
2023-04-09T19:46:58.751Z,11.23
2023-04-09T19:49:11.937Z,11.27
2023-04-09T19:51:25.527Z,11.34
2023-04-09T19:53:38.876Z,11.40
2023-04-09T19:55:51.633Z,11.44
2023-04-09T19:58:05.117Z,11.50
2023-04-09T20:00:18.836Z,11.56
2023-04-09T20:02:32.901Z,11.65
2023-04-09T20:04:46.229Z,11.72
2023-04-09T20:06:58.881Z,11.77
2023-04-09T20:09:13.544Z,11.82
2023-04-09T20:11:27.194Z,11.87
2023-04-09T20:13:39.837Z,11.90
2023-04-09T20:15:52.816Z,11.91
2023-04-09T20:18:05.438Z,11.89
2023-04-09T20:20:21.046Z,11.86
2023-04-09T20:22:33.738Z,11.83
2023-04-09T20:24:46.368Z,11.80
2023-04-09T20:27:00.838Z,11.79
2023-04-09T20:29:13.927Z,11.76
2023-04-09T20:31:27.879Z,11.73
2023-04-09T20:33:41.086Z,11.71
2023-04-09T20:35:54.307Z,11.67
2023-04-09T20:38:07.021Z,11.62
2023-04-09T20:40:19.988Z,11.61
2023-04-09T20:42:32.864Z,11.60
2023-04-09T20:44:46.170Z,11.60
2023-04-09T20:46:59.229Z,11.57
2023-04-09T20:49:12.073Z,11.55
2023-04-09T20:51:24.657Z,11.54
2023-04-09T20:53:37.521Z,11.53
2023-04-09T20:55:50.273Z,11.51
2023-04-09T20:58:03.946Z,11.51
2023-04-09T21:00:19.109Z,11.53
2023-04-09T21:02:32.099Z,11.55
2023-04-09T21:04:45.008Z,11.58
2023-04-09T21:06:57.749Z,11.62
2023-04-09T21:09:11.370Z,11.68
2023-04-09T21:11:24.088Z,11.73
2023-04-09T21:13:53.222Z,11.78
2023-04-09T21:16:07.920Z,11.84
2023-04-09T21:18:20.711Z,11.88
2023-04-09T21:20:33.587Z,11.90
2023-04-09T21:22:46.240Z,11.93
2023-04-09T21:24:59.570Z,11.97
2023-04-09T21:27:12.261Z,12.00
2023-04-09T21:29:25.898Z,12.02
2023-04-09T21:31:39.841Z,12.04
2023-04-09T21:33:53.495Z,12.07
2023-04-09T21:36:08.449Z,12.09
2023-04-09T21:38:21.336Z,12.12
2023-04-09T21:40:34.660Z,12.14
2023-04-09T21:42:47.827Z,12.16
2023-04-09T21:45:00.803Z,12.18
2023-04-09T21:47:15.293Z,12.18
2023-04-09T21:49:28.446Z,12.19
2023-04-09T21:51:41.501Z,12.19
2023-04-09T21:53:54.378Z,12.20
2023-04-09T21:56:07.136Z,12.21
2023-04-09T21:58:20.170Z,12.20
2023-04-09T22:00:33.404Z,12.20
2023-04-09T22:02:47.266Z,12.19
2023-04-09T22:05:02.318Z,12.18
2023-04-09T22:07:15.709Z,12.16
2023-04-09T22:09:28.255Z,12.13
2023-04-09T22:11:42.566Z,12.11
2023-04-09T22:13:55.468Z,12.09
2023-04-09T22:16:09.866Z,12.07
2023-04-09T22:18:22.712Z,12.04
2023-04-09T22:20:36.176Z,12.03
2023-04-09T22:22:49.414Z,12.03
2023-04-09T22:25:02.134Z,12.02
2023-04-09T22:27:14.951Z,12.01
2023-04-09T22:29:27.709Z,12.00
2023-04-09T22:31:41.979Z,12.00
2023-04-09T22:33:55.122Z,12.00
2023-04-09T22:36:08.939Z,11.99
2023-04-09T22:38:21.790Z,11.98
2023-04-09T22:40:35.029Z,11.98
2023-04-09T22:42:49.768Z,11.97
2023-04-09T22:45:03.890Z,11.99
2023-04-09T22:47:17.100Z,12.02
2023-04-09T22:49:30.346Z,12.03
2023-04-09T22:51:43.790Z,12.05
2023-04-09T22:53:57.750Z,12.07
2023-04-09T22:56:11.919Z,12.03
2023-04-09T22:58:25.205Z,12.09
2023-04-09T23:00:38.678Z,12.09
2023-04-09T23:02:52.068Z,12.09
2023-04-09T23:05:05.392Z,12.09
2023-04-09T23:07:18.000Z,12.09
2023-04-09T23:09:31.662Z,12.11
2023-04-09T23:11:44.948Z,12.12
2023-04-09T23:13:57.585Z,12.12
2023-04-09T23:16:13.810Z,12.14
2023-04-09T23:18:26.614Z,12.16
2023-04-09T23:20:39.591Z,12.18
2023-04-09T23:22:54.106Z,12.18
2023-04-09T23:25:07.253Z,12.18
2023-04-09T23:27:19.952Z,12.19
2023-04-09T23:29:35.184Z,12.20
2023-04-09T23:31:49.154Z,12.20
2023-04-09T23:34:02.853Z,12.20
2023-04-09T23:36:16.528Z,12.20
2023-04-09T23:38:29.441Z,12.20
2023-04-09T23:40:42.321Z,12.18
2023-04-09T23:42:55.800Z,12.18
2023-04-09T23:45:11.856Z,12.17
2023-04-09T23:47:25.287Z,12.17
2023-04-09T23:49:38.325Z,12.17
2023-04-09T23:51:51.509Z,12.17
2023-04-09T23:54:04.992Z,12.15
2023-04-09T23:56:18.730Z,12.16
2023-04-09T23:58:31.678Z,12.14
